sensor_id;sensor_type;location;lat;lon;timestamp;P1;durP1;ratioP1;P2;durP2;ratioP2
50689;SDS011;71367;48.298;11.238;2023-07-31T00:05:42;6.65;;;2.15;;
50689;SDS011;71367;48.298;11.238;2023-07-31T00:20:45;5.85;;;2.63;;
50689;SDS011;71367;48.298;11.238;2023-07-31T00:35:50;5.88;;;2.42;;
50689;SDS011;71367;48.298;11.238;2023-07-31T00:50:54;3.97;;;2.30;;
50689;SDS011;71367;48.298;11.238;2023-07-31T01:06:00;5.40;;;2.72;;
50689;SDS011;71367;48.298;11.238;2023-07-31T01:21:16;6.82;;;3.10;;
50689;SDS011;71367;48.298;11.238;2023-07-31T01:36:24;4.72;;;2.88;;
50689;SDS011;71367;48.298;11.238;2023-07-31T01:51:27;7.50;;;3.08;;
50689;SDS011;71367;48.298;11.238;2023-07-31T02:06:29;6.28;;;3.05;;
50689;SDS011;71367;48.298;11.238;2023-07-31T02:21:31;6.18;;;3.03;;
50689;SDS011;71367;48.298;11.238;2023-07-31T02:36:33;7.22;;;3.45;;
50689;SDS011;71367;48.298;11.238;2023-07-31T02:51:36;6.53;;;2.92;;
50689;SDS011;71367;48.298;11.238;2023-07-31T03:06:39;7.90;;;3.35;;
50689;SDS011;71367;48.298;11.238;2023-07-31T03:21:41;9.30;;;3.80;;
50689;SDS011;71367;48.298;11.238;2023-07-31T03:36:43;7.88;;;3.35;;
50689;SDS011;71367;48.298;11.238;2023-07-31T03:51:46;4.78;;;2.50;;
50689;SDS011;71367;48.298;11.238;2023-07-31T04:06:48;9.50;;;2.97;;
50689;SDS011;71367;48.298;11.238;2023-07-31T04:21:51;8.77;;;3.20;;
50689;SDS011;71367;48.298;11.238;2023-07-31T04:36:53;5.60;;;3.25;;
50689;SDS011;71367;48.298;11.238;2023-07-31T04:51:55;5.57;;;3.03;;
50689;SDS011;71367;48.298;11.238;2023-07-31T05:06:58;4.43;;;2.58;;
50689;SDS011;71367;48.298;11.238;2023-07-31T05:22:00;4.95;;;2.65;;
50689;SDS011;71367;48.298;11.238;2023-07-31T05:37:03;5.85;;;2.70;;
50689;SDS011;71367;48.298;11.238;2023-07-31T05:52:06;6.18;;;2.70;;
50689;SDS011;71367;48.298;11.238;2023-07-31T06:07:09;4.38;;;2.53;;
50689;SDS011;71367;48.298;11.238;2023-07-31T06:22:11;5.80;;;2.50;;
50689;SDS011;71367;48.298;11.238;2023-07-31T06:37:13;4.97;;;2.30;;
50689;SDS011;71367;48.298;11.238;2023-07-31T06:52:16;4.75;;;2.50;;
50689;SDS011;71367;48.298;11.238;2023-07-31T07:07:19;5.65;;;2.90;;
50689;SDS011;71367;48.298;11.238;2023-07-31T07:22:21;5.55;;;2.00;;
50689;SDS011;71367;48.298;11.238;2023-07-31T07:37:23;3.05;;;1.80;;
50689;SDS011;71367;48.298;11.238;2023-07-31T07:52:26;6.38;;;2.28;;
50689;SDS011;71367;48.298;11.238;2023-07-31T08:07:29;5.57;;;1.80;;
50689;SDS011;71367;48.298;11.238;2023-07-31T08:22:33;5.25;;;1.75;;
50689;SDS011;71367;48.298;11.238;2023-07-31T08:37:35;3.55;;;1.85;;
50689;SDS011;71367;48.298;11.238;2023-07-31T08:52:39;6.45;;;2.13;;
50689;SDS011;71367;48.298;11.238;2023-07-31T09:07:41;5.97;;;1.92;;
50689;SDS011;71367;48.298;11.238;2023-07-31T09:22:47;5.22;;;2.05;;
50689;SDS011;71367;48.298;11.238;2023-07-31T09:37:51;5.47;;;2.13;;
50689;SDS011;71367;48.298;11.238;2023-07-31T09:52:55;8.90;;;1.90;;
50689;SDS011;71367;48.298;11.238;2023-07-31T10:07:57;5.60;;;2.05;;
50689;SDS011;71367;48.298;11.238;2023-07-31T10:22:59;5.03;;;2.20;;
50689;SDS011;71367;48.298;11.238;2023-07-31T10:38:12;5.85;;;2.20;;
50689;SDS011;71367;48.298;11.238;2023-07-31T10:53:23;5.65;;;2.08;;
50689;SDS011;71367;48.298;11.238;2023-07-31T11:08:27;3.70;;;1.90;;
50689;SDS011;71367;48.298;11.238;2023-07-31T11:23:30;4.03;;;2.13;;
50689;SDS011;71367;48.298;11.238;2023-07-31T11:38:33;5.70;;;1.92;;
50689;SDS011;71367;48.298;11.238;2023-07-31T11:53:36;5.93;;;2.27;;
50689;SDS011;71367;48.298;11.238;2023-07-31T12:08:43;5.73;;;2.27;;
50689;SDS011;71367;48.298;11.238;2023-07-31T12:23:45;3.57;;;1.80;;
50689;SDS011;71367;48.298;11.238;2023-07-31T12:38:48;5.30;;;2.00;;
50689;SDS011;71367;48.298;11.238;2023-07-31T12:53:52;4.83;;;1.97;;
50689;SDS011;71367;48.298;11.238;2023-07-31T13:08:54;3.97;;;1.80;;
50689;SDS011;71367;48.298;11.238;2023-07-31T13:23:57;4.37;;;1.90;;
50689;SDS011;71367;48.298;11.238;2023-07-31T13:38:59;4.60;;;1.93;;
50689;SDS011;71367;48.298;11.238;2023-07-31T13:54:02;6.03;;;1.90;;
50689;SDS011;71367;48.298;11.238;2023-07-31T14:09:04;5.23;;;1.80;;
50689;SDS011;71367;48.298;11.238;2023-07-31T14:24:07;4.63;;;1.97;;
50689;SDS011;71367;48.298;11.238;2023-07-31T14:39:09;5.37;;;2.23;;
50689;SDS011;71367;48.298;11.238;2023-07-31T14:54:12;6.33;;;2.17;;
50689;SDS011;71367;48.298;11.238;2023-07-31T15:09:14;5.70;;;2.50;;
50689;SDS011;71367;48.298;11.238;2023-07-31T15:24:17;5.20;;;2.50;;
50689;SDS011;71367;48.298;11.238;2023-07-31T15:39:19;7.03;;;2.60;;
50689;SDS011;71367;48.298;11.238;2023-07-31T15:54:22;5.72;;;2.97;;
50689;SDS011;71367;48.298;11.238;2023-07-31T16:09:24;7.68;;;2.78;;
50689;SDS011;71367;48.298;11.238;2023-07-31T16:24:27;6.32;;;2.58;;
50689;SDS011;71367;48.298;11.238;2023-07-31T16:39:29;5.60;;;2.78;;
50689;SDS011;71367;48.298;11.238;2023-07-31T16:54:32;7.47;;;2.70;;
50689;SDS011;71367;48.298;11.238;2023-07-31T17:09:34;5.03;;;2.58;;
50689;SDS011;71367;48.298;11.238;2023-07-31T17:24:37;6.22;;;2.38;;
50689;SDS011;71367;48.298;11.238;2023-07-31T17:39:39;5.80;;;2.50;;
50689;SDS011;71367;48.298;11.238;2023-07-31T17:54:42;5.32;;;2.20;;
50689;SDS011;71367;48.298;11.238;2023-07-31T18:09:45;5.10;;;2.50;;
50689;SDS011;71367;48.298;11.238;2023-07-31T18:24:47;3.45;;;2.05;;
50689;SDS011;71367;48.298;11.238;2023-07-31T18:39:50;4.90;;;2.50;;
50689;SDS011;71367;48.298;11.238;2023-07-31T18:54:52;8.82;;;2.85;;
50689;SDS011;71367;48.298;11.238;2023-07-31T19:09:55;5.70;;;2.80;;
50689;SDS011;71367;48.298;11.238;2023-07-31T19:24:58;5.68;;;2.67;;
50689;SDS011;71367;48.298;11.238;2023-07-31T19:40:00;7.07;;;2.70;;
50689;SDS011;71367;48.298;11.238;2023-07-31T19:55:04;4.63;;;2.67;;
50689;SDS011;71367;48.298;11.238;2023-07-31T20:10:07;8.43;;;3.28;;
50689;SDS011;71367;48.298;11.238;2023-07-31T20:25:10;7.32;;;3.05;;
50689;SDS011;71367;48.298;11.238;2023-07-31T20:40:13;5.63;;;3.25;;
50689;SDS011;71367;48.298;11.238;2023-07-31T20:55:15;6.90;;;2.67;;
50689;SDS011;71367;48.298;11.238;2023-07-31T21:10:19;7.90;;;3.40;;
50689;SDS011;71367;48.298;11.238;2023-07-31T21:25:21;7.22;;;4.00;;
50689;SDS011;71367;48.298;11.238;2023-07-31T21:40:24;6.78;;;3.47;;
50689;SDS011;71367;48.298;11.238;2023-07-31T21:55:26;6.88;;;3.47;;
50689;SDS011;71367;48.298;11.238;2023-07-31T22:10:29;6.85;;;3.70;;
50689;SDS011;71367;48.298;11.238;2023-07-31T22:25:31;4.93;;;2.90;;
50689;SDS011;71367;48.298;11.238;2023-07-31T22:40:33;7.60;;;3.00;;
50689;SDS011;71367;48.298;11.238;2023-07-31T22:55:36;7.80;;;4.32;;
50689;SDS011;71367;48.298;11.238;2023-07-31T23:10:38;8.27;;;4.18;;
50689;SDS011;71367;48.298;11.238;2023-07-31T23:25:40;8.63;;;4.25;;
50689;SDS011;71367;48.298;11.238;2023-07-31T23:40:45;7.00;;;4.00;;
50689;SDS011;71367;48.298;11.238;2023-07-31T23:55:47;7.38;;;3.50;;
